Here is the Quick Look data you requested

The Data originates at the National Weather Service, and is made available here by the UAlbany Department of Atmospheric and Environmental Sciences

Surface Observations

PAAQ 181353Z AUTO 07003KT 10SM BKN070 OVC090 06/02 A2985 RMK AO2 SLP110
 T00610022 TSNO=
PABA 181352Z AUTO 09023KT 10SM OVC006 M03/M04 A2988 RMK AO2 PK WND 09031/1259
 SLP104 T10331044 FZRANO TSNO=
PABE 181353Z 00000KT 10SM FEW005 OVC029 05/05 A2957 RMK AO2 SLP016 T00500050=
PABI 181353Z AUTO 18010KT 10SM CLR 07/M01 A2981 RMK AO2 SLP104 T00721006 TSNO=
PABL 181356Z AUTO 09003KT 10SM FEW031 M03/M03 A2973 RMK AO2 SNE27 SLP069 P0000
 T10281033 FZRANO=
PABR 181407Z 08017KT 1 1/2SM -SN BR OVC022 M03/M03 A2986=
PABT 181353Z 28003KT 6SM BR OVC031 02/02 A2978 RMK AO2 RAB1256E36 SLP096
 T00170017 PNO $=
PABV 181356Z AUTO 09004KT 10SM SCT080 OVC100 06/03 A2985 RMK AO2 SLP118
 T00560028=
PACD 181353Z AUTO 31011KT 10SM FEW013 BKN021 OVC085 08/07 A2959 RMK AO2 SLP020
 T00830072 TSNO=
PACV 181353Z 07006KT 10SM -RA OVC039 07/04 A2997 RMK AO2 RAB49 SLP148 P0000
 T00670044=
PACZ 181355Z AUTO 03024KT 10SM SCT015 BKN085 03/01 A2962 RMK AO2 PK WND
 01029/1314 SLP035 T00280006=
PADE 181353Z AUTO 20005KT 10SM OVC017 M01/M01 A2970 RMK AO2 SNE45 SLP057 P0000
 T10061011 TSNO $=
PADK 181356Z AUTO 22003KT 10SM CLR 01/M01 A3012 RMK AO2 SLP200 T00061006 FZRANO=
PADL 181356Z AUTO 10007KT 10SM SCT032 OVC050 07/06 A2961 RMK AO2 SLP031
 T00670061=
PADQ 181353Z AUTO 00000KT 10SM SCT032 SCT048 04/03 A2974 RMK AO2 RAB20E32
 SLP071 P0000 T00390033 TSNO=
PADU 181356Z AUTO 33019G25KT 6SM -RA SCT015 BKN023 OVC030 07/04 A2978 RMK AO2
 PK WND 33029/1330 SLP089 P0005 T00720044=
PAED 181356Z 00000KT 10SM BKN080 07/06 A2983 RMK AO2A DZE1256RAB1256E11DZB11E23
 SLP098 P0000 T00650059=
PAEG 181353Z AUTO 17003KT 10SM FEW095 M03/M04 A2983 RMK AO2 SLP110 T10331044
 TSNO=
PAEH 181355Z AUTO 15011G20KT 8SM -SHRA BKN012 08/06 A2950 RMK AO2
 RAB1322E1334DZB1324E1329SHRAB1334 SLP990 P0002 T00830059 $=
PAEI 181356Z 00000KT 10SM BKN110 BKN130 M02/M03 A2978 RMK AO2A SLPNO T10191032
 RVRNO $=
PAEN 181353Z AUTO 08003KT 10SM BKN060 OVC075 06/04 A2981 RMK AO2 SLP098
 T00560044 TSNO=
PAFA 181353Z 00000KT 10SM BKN095 BKN200 M01/M02 A2979 RMK AO2 SLP094 T10061017
 $=
PAFB 181358Z AUTO 00000KT 10SM SCT090 M01/M01 A2979 RMK AO2 SLP094 T10081010 $=
PAFE 181356Z AUTO 10006KT 10SM OVC007 08/07 A3022 RMK AO2 CIG 007V011 SLP248
 T00830072=
PAFM 181356Z AUTO 06004KT 1 1/4SM -RA BR OVC005 01/01 A2974 RMK AO2
 RAE04B24UPB11E24 SLP087 P0001 T00110006 FZRANO=
PAGA 181356Z AUTO 11007KT 10SM -RA OVC047 05/04 A2970 RMK AO2 RAB50 SLP060
 P0000 T00500039=
PAGK 181353Z AUTO 15008KT 10SM SCT120 03/01 A2989 RMK AO2 SLP140 T00330011 TSNO
 $=
PAGM 181356Z AUTO 35023G27KT 10SM CLR 03/M03 A2991 RMK AO2 PK WND 36029/1308
 SLP134 T00281028 PNO $=
PAGS 181356Z AUTO 11007KT 10SM OVC035 08/07 A3015 RMK AO2 SLP211 P0001
 T00830072=
PAGY 181353Z AUTO 20016G25KT 10SM FEW048 BKN065 09/06 A3010 RMK AO2 PK WND
 21026/1318 SLP194 T00940061 TSNO=
PAHN 181354Z AUTO 08007KT 10SM OVC011 08/07 A3012 RMK AO2 SLP202 T00830067 TSNO=
PAHO 181353Z AUTO 07003KT 10SM BKN045 05/03 A2980 RMK AO2 SLP090 T00500033 TSNO=
PAII 181356Z AUTO 12006KT 10SM OVC050 07/05 A2962 RMK AO2 SLP033 T00670050 PNO
 $=
PAIL 181353Z 09010KT 10SM SCT035 09/06 A2971 RMK AO2 SLP062 T00890056 $=
PAIM 181355Z AUTO 00000KT 10SM FEW019 SCT070 SCT220 01/01 A2973 RMK AO2 SLP083
 T00060006=
PAIN 181356Z AUTO 20003KT 10SM SCT035 OVC047 04/01 A2980 RMK AO2 SLP113
 T00390006=
PAJC 181357Z AUTO 00000KT 10SM FEW042 06/05 A2959 RMK AO2 SLP020 T00610050=
PAJN 181353Z 09007KT 10SM -RA FEW005 BKN038 OVC045 09/08 A3016 RMK AO2
 RAB25E34B50 SLP213 P0000 T00890078=
PAKK 181356Z AUTO 34010G18KT 10SM SCT019 OVC038 00/M02 A2963 RMK AO2 UPE20
 SLP048 P0000 T00001017 FZRANO=
PAKN 181354Z AUTO 09006KT 10SM SCT060 07/03 A2961 RMK AO2 SLP026 T00670028 TSNO=
PAKP 181356Z AUTO 00000KT 10SM -RA OVC009 01/00 A2971 RMK AO2 UPE12RAB12 SLP103
 P0000 T00060000 FZRANO=
PAKT 181353Z AUTO 00000KT 5SM BR OVC004 09/08 A3021 RMK AO2 SLP232 T00890083
 TSNO $=
PAKU 181345Z 10020KT 10SM R06/P6000FT -SHSN DRSN OVC007 M03/M04 A2982=
PAKW 181353Z AUTO 02004KT 7SM BKN001 06/06 A3019 RMK AO2 SLP223 T00610061 TSNO=
PALH 181353Z 06004KT 10SM BKN055 BKN075 OVC090 07/04 A2984 RMK AO2 SLP105
 T00720039=
PALU 181355Z AUTO 05017KT 10SM -SHRA OVC026 01/M02 A2984 RMK AO2
 SHRAB1306E1321B1342 SLP103 P0000 T00091024 $=
PAMC 181353Z AUTO 00000KT 10SM SCT040 BKN075 OVC120 03/03 A2973 RMK AO2 SLP071
 T00330028 TSNO=
PAMD 181351Z AUTO 14008KT 10SM CLR 08/06 A2991 RMK AO2 SLP120 T00780056=
PAMH 181356Z AUTO 00000KT 1SM BR OVC001 01/01 A2975 RMK AO2 SLP831 T00060006
 FZRANO=
PAMM 181423Z AUTO 15003KT 3/4SM BR OVC003 08/08 A3023 RMK AO2=
PAMR 181353Z 00000KT 10SM SCT050 OVC075 07/04 A2983 RMK AO2 RAB1255E18 SLP103
 P0000 T00720039=
PANC 181353Z 13010G19KT 10SM SCT049 OVC065 09/04 A2983 RMK AO2 RAB00E13 SLP102
 P0000 T00940039=
PANI 181356Z AUTO 11005KT 10SM BKN047 OVC055 06/04 A2961 RMK AO2 RAB03E34
 SLP996 P0000 T00610044=
PANN 181353Z AUTO 11005KT 10SM OVC075 03/01 A2976 RMK AO2 SLP086 T00280011 TSNO=
PAOH 181356Z AUTO 00000KT 4SM BR SCT001 BKN070 04/04 A3015 RMK AO2 SLP211 P0001
 T00390039=
PAOM 181353Z AUTO 01005KT 10SM CLR M03/M04 A2970 RMK AO2 SLP059 T10281044 TSNO=
PAOR 181353Z 08004KT 10SM FEW170 FEW200 FEW240 M05/M06 A2986 RMK AO2 SLP141
 I1000 T10501056=
PAOT 181353Z AUTO 04005KT 6SM -SN BR SCT003 OVC024 M01/M02 A2971 RMK AO2 SNB48
 SLP060 P0000 T10111022 TSNO $=
PAPB 181353Z AUTO 34015G25KT 10SM OVC050 05/01 A2984 RMK AO2 PK WND 34029/1323
 RAE05B28E37 SLP092 P0000 T00500006 TSNO=
PAPG 181356Z 27003KT 4SM BR OVC027 05/05 A3022 RMK AO2 SLPNO T00500050=
PAPH 181356Z AUTO 15011KT 10SM CLR 07/04 A2957 RMK AO2 SLP015 T00670044=
PAPO 181356Z AUTO 03018KT 10SM BKN029 OVC035 01/M03 A2982 RMK AO2 PK WND
 04027/1313 SLP099 T00111028 FZRANO=
PAQT 181353Z AUTO 09013KT 10SM OVC008 M03/M04 A2983 RMK AO2 SLP102 T10281039
 TSNO=
PARC 181356Z AUTO 33003KT 1/2SM FZFG SCT003 OVC007 M08/M09 A2981 RMK AO2 SNE21
 SLP151 P0000 T10831094 FZRANO=
PASA 181356Z AUTO 34023G28KT 10SM BKN021 OVC027 03/M01 A2987 RMK AO2 PK WND
 35030/1345 SLP116 T00331006 $=
PASC 181353Z 09020KT 10SM OVC010 M02/M04 A2982 RMK AO2 PK WND 09031/1315 SLP098
 DRSN T10221039=
PASD 181356Z AUTO 00000KT 10SM OVC031 08/07 A2958 RMK AO2 SLP019 T00780067 PNO
 $=
PASH 181356Z AUTO 35020G27KT 10SM OVC029 02/M03 A2976 RMK AO2 PK WND 36027/1353
 SLP080 T00171033 FZRANO=
PASI 181353Z 10008KT 10SM BKN019 OVC029 09/09 A3016 RMK AO2 RAB10E39 SLP212
 P0000 T00940089=
PASK 181356Z AUTO 00000KT 6SM BR SCT023 OVC040 M02/M02 A2974 RMK AO2 SLP067
 T10171017 FZRANO $=
PASL 181356Z AUTO 00000KT 7SM FEW034 OVC046 04/03 A2972 RMK AO2 SLP061
 T00390033=
PASM 181402Z AUTO 01007KT 7SM -RA BKN008 OVC014 03/03 A2961 RMK AO2 RAB1320 CIG
 006V012 SLP045 P0001 T00280028=
PASN 181353Z AUTO 34021G28KT 10SM FEW028 OVC055 04/01 A2984 RMK AO2 PK WND
 34028/1353 SLP106 T00440006 TSNO=
PASO 181353Z AUTO 00000KT 7SM -RA SCT038 BKN049 06/04 A2978 RMK AO2 RAB51
 SLP084 P0000 T00560044 TSNO=
PASV 181355Z AUTO 19004KT 10SM CLR 05/00 A2967 RMK AO2 SLP058 T00541001=
PASX 181356Z AUTO 00000KT 10SM SCT050 BKN075 BKN120 04/03 A2983 RMK AO2 SLP113
 T00390033=
PASY 181358Z AUTO 14034G40KT 3SM -RA BR BKN009 OVC013 07/06 A2977 RMK AO2 CIG
 009V011 SLP085 P0003 $=
PATA 181352Z 00000KT 10SM SCT045 OVC065 02/01 A2977 RMK AO2 RAE45 SLP086
 T00220011=
PATC 181355Z AUTO 03011KT 3SM -SHSN BKN017 BKN055 00/00 A2978 RMK AO2
PATG 181356Z AUTO 27003KT 10SM SCT011 OVC024 07/06 A2957 RMK AO2 RAB23E37
 SLP108 P0000 T00670056=
PATK 181353Z AUTO 00000KT 10SM OVC040 04/04 A2986 RMK AO2 SLP115 T00440039 TSNO=
PATL 181355Z AUTO 06001KT 10SM FEW028 SCT046 BKN065 03/03 A2974 RMK AO2
 RAB1244E1301SHRAB1301E1313 SLP077 T00340032=
PATO 181353Z AUTO VRB06KT 5SM RA BR OVC034 06/04 A2990 RMK AO2 SLP124 P0009
 T00610039 TSNO=
PAUN 181356Z AUTO 00000KT 10SM OVC044 04/04 A2964 RMK AO2 SLP040 T00440044=
PAVD 181356Z AUTO 00000KT 10SM -RA FEW044 OVC060 04/03 A2998 RMK AO2 RAE16B34
 SLP177 P0000 T00390033=
PAVL 181353Z AUTO 03017KT 9SM OVC055 M02/M06 A2974 RMK AO2 SLP070 T10221061
 TSNO=
PAWD 181353Z AUTO 03005KT 10SM -RA BKN040 OVC047 08/06 A2986 RMK AO2 RAB05
 SLP112 P0007 T00780061 TSNO $=
PAWG 181355Z 07004KT 10SM FEW007 OVC055 08/07 A3023=
PAWI 181353Z AUTO 05013KT 2SM -SN BR OVC035 M03/M04 A2980 RMK AO2 SLP092 P0000
 T10281039 TSNO=
PAWN 181356Z AUTO 03006KT 10SM OVC036 M02/M05 A2973 RMK AO2 SLP083 T10171050
 FZRANO=
PAWS 181356Z AUTO 07006KT 10SM FEW075 BKN090 08/02 A2986 RMK AO2 SLP126
 T00780017=
PAYA 181353Z AUTO 36007KT 4SM RA BR FEW007 BKN021 OVC037 08/06 A3009 RMK AO2
 RAB29 SLP188 P0005 T00780061 TSNO=
PPIZ 181356Z AUTO 35005KT 9SM -SN OVC041 M05/M06 A2983 RMK AO2 SNB05 SLP106
 P0000 T10501056 FZRANO=